sensor_id;sensor_type;location;lat;lon;timestamp;pressure;altitude;pressure_sealevel;temperature
50206;BMP280;36098;48.390;10.856;2024-02-16T00:01:37;95964.19;;;19.47
50206;BMP280;36098;48.390;10.856;2024-02-16T00:04:02;95963.41;;;19.47
50206;BMP280;36098;48.390;10.856;2024-02-16T00:06:27;95956.03;;;19.44
50206;BMP280;36098;48.390;10.856;2024-02-16T00:08:53;95963.13;;;19.43
50206;BMP280;36098;48.390;10.856;2024-02-16T00:11:18;95968.66;;;19.47
50206;BMP280;36098;48.390;10.856;2024-02-16T00:13:43;95968.66;;;19.47
50206;BMP280;36098;48.390;10.856;2024-02-16T00:16:09;95968.13;;;19.45
50206;BMP280;36098;48.390;10.856;2024-02-16T00:18:34;95962.09;;;19.44
50206;BMP280;36098;48.390;10.856;2024-02-16T00:20:59;95964.94;;;19.43
50206;BMP280;36098;48.390;10.856;2024-02-16T00:23:26;95970.44;;;19.41
50206;BMP280;36098;48.390;10.856;2024-02-16T00:25:51;95967.56;;;19.43
50206;BMP280;36098;48.390;10.856;2024-02-16T00:28:17;95964.69;;;19.44
50206;BMP280;36098;48.390;10.856;2024-02-16T00:30:42;95963.34;;;19.42
50206;BMP280;36098;48.390;10.856;2024-02-16T00:33:07;95963.91;;;19.44
50206;BMP280;36098;48.390;10.856;2024-02-16T00:35:32;95967.56;;;19.43
50206;BMP280;36098;48.390;10.856;2024-02-16T00:37:59;95961.53;;;19.42
50206;BMP280;36098;48.390;10.856;2024-02-16T00:40:24;95965.97;;;19.42
50206;BMP280;36098;48.390;10.856;2024-02-16T00:42:51;95963.13;;;19.43
50206;BMP280;36098;48.390;10.856;2024-02-16T00:45:16;95964.41;;;19.41
50206;BMP280;36098;48.390;10.856;2024-02-16T00:47:43;95958.38;;;19.40
50206;BMP280;36098;48.390;10.856;2024-02-16T00:50:10;95947.09;;;19.40
50206;BMP280;36098;48.390;10.856;2024-02-16T00:52:36;95946.34;;;19.39
50206;BMP280;36098;48.390;10.856;2024-02-16T00:55:02;95944.75;;;19.38
50206;BMP280;36098;48.390;10.856;2024-02-16T00:57:29;95952.34;;;19.40
50206;BMP280;36098;48.390;10.856;2024-02-16T00:59:54;95940.56;;;19.37
50206;BMP280;36098;48.390;10.856;2024-02-16T01:02:19;95945.53;;;19.39
50206;BMP280;36098;48.390;10.856;2024-02-16T01:04:45;95936.09;;;19.38
50206;BMP280;36098;48.390;10.856;2024-02-16T01:07:12;95946.56;;;19.38
50206;BMP280;36098;48.390;10.856;2024-02-16T01:09:37;95940.00;;;19.35
50206;BMP280;36098;48.390;10.856;2024-02-16T01:12:02;95947.59;;;19.37
50206;BMP280;36098;48.390;10.856;2024-02-16T01:14:28;95942.38;;;19.37
50206;BMP280;36098;48.390;10.856;2024-02-16T01:16:53;95939.22;;;19.35
50206;BMP280;36098;48.390;10.856;2024-02-16T01:19:18;95942.63;;;19.35
50206;BMP280;36098;48.390;10.856;2024-02-16T01:21:43;95947.06;;;19.35
50206;BMP280;36098;48.390;10.856;2024-02-16T01:24:12;95936.06;;;19.33
50206;BMP280;36098;48.390;10.856;2024-02-16T01:26:38;95942.34;;;19.32
50206;BMP280;36098;48.390;10.856;2024-02-16T01:29:03;95949.91;;;19.33
50206;BMP280;36098;48.390;10.856;2024-02-16T01:31:28;95949.66;;;19.30
50206;BMP280;36098;48.390;10.856;2024-02-16T01:33:54;95965.91;;;19.32
50206;BMP280;36098;48.390;10.856;2024-02-16T01:36:19;95964.31;;;19.31
50206;BMP280;36098;48.390;10.856;2024-02-16T01:38:44;95969.56;;;19.31
50206;BMP280;36098;48.390;10.856;2024-02-16T01:41:10;95963.28;;;19.32
50206;BMP280;36098;48.390;10.856;2024-02-16T01:43:36;95959.09;;;19.31
50206;BMP280;36098;48.390;10.856;2024-02-16T01:46:01;95959.09;;;19.31
50206;BMP280;36098;48.390;10.856;2024-02-16T01:48:28;95957.22;;;19.31
50206;BMP280;36098;48.390;10.856;2024-02-16T01:50:54;95947.81;;;19.30
50206;BMP280;36098;48.390;10.856;2024-02-16T01:53:20;95943.91;;;19.33
50206;BMP280;36098;48.390;10.856;2024-02-16T01:55:47;95946.22;;;19.29
50206;BMP280;36098;48.390;10.856;2024-02-16T01:58:12;95945.19;;;19.30
50206;BMP280;36098;48.390;10.856;2024-02-16T02:00:39;95940.75;;;19.31
50206;BMP280;36098;48.390;10.856;2024-02-16T02:03:05;95942.84;;;19.29
50206;BMP280;36098;48.390;10.856;2024-02-16T02:05:31;95945.44;;;19.29
50206;BMP280;36098;48.390;10.856;2024-02-16T02:07:58;95936.78;;;19.28
50206;BMP280;36098;48.390;10.856;2024-02-16T02:10:23;95931.56;;;19.28
50206;BMP280;36098;48.390;10.856;2024-02-16T02:12:48;95923.44;;;19.25
50206;BMP280;36098;48.390;10.856;2024-02-16T02:15:13;95919.78;;;19.26
50206;BMP280;36098;48.390;10.856;2024-02-16T02:17:39;95921.34;;;19.27
50206;BMP280;36098;48.390;10.856;2024-02-16T02:20:04;95921.34;;;19.27
50206;BMP280;36098;48.390;10.856;2024-02-16T02:22:33;95919.78;;;19.26
50206;BMP280;36098;48.390;10.856;2024-02-16T02:25:01;95921.59;;;19.25
50206;BMP280;36098;48.390;10.856;2024-02-16T02:27:27;95928.66;;;19.25
50206;BMP280;36098;48.390;10.856;2024-02-16T02:29:53;95928.66;;;19.25
50206;BMP280;36098;48.390;10.856;2024-02-16T02:32:18;95923.91;;;19.22
50206;BMP280;36098;48.390;10.856;2024-02-16T02:34:44;95937.53;;;19.24
50206;BMP280;36098;48.390;10.856;2024-02-16T02:37:09;95934.38;;;19.22
50206;BMP280;36098;48.390;10.856;2024-02-16T02:39:35;95932.56;;;19.22
50206;BMP280;36098;48.390;10.856;2024-02-16T02:42:00;95927.31;;;19.22
50206;BMP280;36098;48.390;10.856;2024-02-16T02:44:25;95923.91;;;19.22
50206;BMP280;36098;48.390;10.856;2024-02-16T02:46:51;95925.97;;;19.20
50206;BMP280;36098;48.390;10.856;2024-02-16T02:49:17;95932.78;;;19.21
50206;BMP280;36098;48.390;10.856;2024-02-16T02:51:42;95937.25;;;19.20
50206;BMP280;36098;48.390;10.856;2024-02-16T02:54:07;95930.44;;;19.19
50206;BMP280;36098;48.390;10.856;2024-02-16T02:56:33;95928.34;;;19.21
50206;BMP280;36098;48.390;10.856;2024-02-16T02:58:58;95931.47;;;19.18
50206;BMP280;36098;48.390;10.856;2024-02-16T03:01:24;95928.59;;;19.20
50206;BMP280;36098;48.390;10.856;2024-02-16T03:03:49;95928.06;;;19.18
50206;BMP280;36098;48.390;10.856;2024-02-16T03:06:21;95926.25;;;19.18
50206;BMP280;36098;48.390;10.856;2024-02-16T03:08:48;95918.84;;;19.15
50206;BMP280;36098;48.390;10.856;2024-02-16T03:11:13;95922.03;;;19.17
50206;BMP280;36098;48.390;10.856;2024-02-16T03:13:39;95917.59;;;19.18
50206;BMP280;36098;48.390;10.856;2024-02-16T03:16:05;95911.56;;;19.17
50206;BMP280;36098;48.390;10.856;2024-02-16T03:18:31;95922.25;;;19.16
50206;BMP280;36098;48.390;10.856;2024-02-16T03:20:57;95923.84;;;19.17
50206;BMP280;36098;48.390;10.856;2024-02-16T03:23:22;95915.22;;;19.16
50206;BMP280;36098;48.390;10.856;2024-02-16T03:25:48;95921.72;;;19.14
50206;BMP280;36098;48.390;10.856;2024-02-16T03:28:13;95919.63;;;19.16
50206;BMP280;36098;48.390;10.856;2024-02-16T03:30:39;95919.88;;;19.14
50206;BMP280;36098;48.390;10.856;2024-02-16T03:33:05;95920.66;;;19.15
50206;BMP280;36098;48.390;10.856;2024-02-16T03:35:30;95933.75;;;19.15
50206;BMP280;36098;48.390;10.856;2024-02-16T03:37:56;95927.72;;;19.14
50206;BMP280;36098;48.390;10.856;2024-02-16T03:40:23;95936.88;;;19.12
50206;BMP280;36098;48.390;10.856;2024-02-16T03:42:49;95941.06;;;19.13
50206;BMP280;36098;48.390;10.856;2024-02-16T03:45:15;95938.44;;;19.13
50206;BMP280;36098;48.390;10.856;2024-02-16T03:47:40;95935.28;;;19.11
50206;BMP280;36098;48.390;10.856;2024-02-16T03:50:07;95937.91;;;19.11
50206;BMP280;36098;48.390;10.856;2024-02-16T03:52:32;95935.28;;;19.11
50206;BMP280;36098;48.390;10.856;2024-02-16T03:55:01;95941.06;;;19.13
50206;BMP280;36098;48.390;10.856;2024-02-16T03:57:27;95943.16;;;19.11
50206;BMP280;36098;48.390;10.856;2024-02-16T03:59:52;95935.25;;;19.06
50206;BMP280;36098;48.390;10.856;2024-02-16T04:02:17;95940.75;;;19.09
50206;BMP280;36098;48.390;10.856;2024-02-16T04:04:44;95950.19;;;19.10
50206;BMP280;36098;48.390;10.856;2024-02-16T04:07:09;95947.84;;;19.09
50206;BMP280;36098;48.390;10.856;2024-02-16T04:09:34;95951.22;;;19.09
50206;BMP280;36098;48.390;10.856;2024-02-16T04:12:01;95947.84;;;19.09
50206;BMP280;36098;48.390;10.856;2024-02-16T04:14:27;95949.66;;;19.08
50206;BMP280;36098;48.390;10.856;2024-02-16T04:16:52;95950.69;;;19.07
50206;BMP280;36098;48.390;10.856;2024-02-16T04:19:18;95970.59;;;19.08
50206;BMP280;36098;48.390;10.856;2024-02-16T04:21:43;95952.53;;;19.07
50206;BMP280;36098;48.390;10.856;2024-02-16T04:24:08;95957.78;;;19.07
50206;BMP280;36098;48.390;10.856;2024-02-16T04:26:33;95969.28;;;19.06
50206;BMP280;36098;48.390;10.856;2024-02-16T04:28:59;95972.91;;;19.05
50206;BMP280;36098;48.390;10.856;2024-02-16T04:31:24;95972.34;;;19.03
50206;BMP280;36098;48.390;10.856;2024-02-16T04:33:49;95973.41;;;19.02
50206;BMP280;36098;48.390;10.856;2024-02-16T04:36:15;95980.75;;;19.05
50206;BMP280;36098;48.390;10.856;2024-02-16T04:38:41;95971.31;;;19.04
50206;BMP280;36098;48.390;10.856;2024-02-16T04:41:06;95972.91;;;19.05
50206;BMP280;36098;48.390;10.856;2024-02-16T04:43:33;95971.03;;;19.00
50206;BMP280;36098;48.390;10.856;2024-02-16T04:45:58;95971.59;;;19.02
50206;BMP280;36098;48.390;10.856;2024-02-16T04:48:24;95975.25;;;19.01
50206;BMP280;36098;48.390;10.856;2024-02-16T04:50:50;95977.06;;;19.01
50206;BMP280;36098;48.390;10.856;2024-02-16T04:53:16;95973.66;;;19.00
50206;BMP280;36098;48.390;10.856;2024-02-16T04:55:41;95973.66;;;19.00
50206;BMP280;36098;48.390;10.856;2024-02-16T04:58:07;95978.91;;;19.00
50206;BMP280;36098;48.390;10.856;2024-02-16T05:00:35;95972.84;;;19.00
50206;BMP280;36098;48.390;10.856;2024-02-16T05:03:00;95982.56;;;18.99
50206;BMP280;36098;48.390;10.856;2024-02-16T05:05:26;95989.59;;;18.99
50206;BMP280;36098;48.390;10.856;2024-02-16T05:07:51;95982.00;;;18.97
50206;BMP280;36098;48.390;10.856;2024-02-16T05:10:16;95974.94;;;18.98
50206;BMP280;36098;48.390;10.856;2024-02-16T05:12:42;95977.00;;;18.96
50206;BMP280;36098;48.390;10.856;2024-02-16T05:15:08;95979.63;;;18.96
50206;BMP280;36098;48.390;10.856;2024-02-16T05:17:34;95982.25;;;18.96
50206;BMP280;36098;48.390;10.856;2024-02-16T05:20:03;95982.25;;;18.96
50206;BMP280;36098;48.390;10.856;2024-02-16T05:22:28;95980.88;;;18.93
50206;BMP280;36098;48.390;10.856;2024-02-16T05:24:53;95980.66;;;18.95
50206;BMP280;36098;48.390;10.856;2024-02-16T05:27:35;95984.31;;;18.94
50206;BMP280;36098;48.390;10.856;2024-02-16T05:30:00;95979.06;;;18.94
50206;BMP280;36098;48.390;10.856;2024-02-16T05:32:25;95982.47;;;18.94
50206;BMP280;36098;48.390;10.856;2024-02-16T05:34:51;95971.72;;;18.91
50206;BMP280;36098;48.390;10.856;2024-02-16T05:37:16;95970.69;;;18.92
50206;BMP280;36098;48.390;10.856;2024-02-16T05:39:42;95968.06;;;18.92
50206;BMP280;36098;48.390;10.856;2024-02-16T05:42:22;95971.72;;;18.91
50206;BMP280;36098;48.390;10.856;2024-02-16T05:44:47;95978.53;;;18.92
50206;BMP280;36098;48.390;10.856;2024-02-16T05:47:15;95977.19;;;18.89
50206;BMP280;36098;48.390;10.856;2024-02-16T05:49:40;95975.59;;;18.88
50206;BMP280;36098;48.390;10.856;2024-02-16T05:52:05;95980.06;;;18.88
50206;BMP280;36098;48.390;10.856;2024-02-16T05:54:44;95981.66;;;18.89
50206;BMP280;36098;48.390;10.856;2024-02-16T05:57:10;95987.91;;;18.88
50206;BMP280;36098;48.390;10.856;2024-02-16T05:59:35;95992.88;;;18.89
50206;BMP280;36098;48.390;10.856;2024-02-16T06:02:00;95988.94;;;18.87
50206;BMP280;36098;48.390;10.856;2024-02-16T06:04:25;95989.41;;;18.84
50206;BMP280;36098;48.390;10.856;2024-02-16T06:06:51;95997.84;;;18.86
50206;BMP280;36098;48.390;10.856;2024-02-16T06:09:18;96005.69;;;18.86
50206;BMP280;36098;48.390;10.856;2024-02-16T06:11:44;96000.16;;;18.82
50206;BMP280;36098;48.390;10.856;2024-02-16T06:14:09;96004.34;;;18.83
50206;BMP280;36098;48.390;10.856;2024-02-16T06:16:34;96009.56;;;18.83
50206;BMP280;36098;48.390;10.856;2024-02-16T06:18:59;96016.63;;;18.83
50206;BMP280;36098;48.390;10.856;2024-02-16T06:21:25;96023.44;;;18.84
50206;BMP280;36098;48.390;10.856;2024-02-16T06:23:50;96013.44;;;18.81
50206;BMP280;36098;48.390;10.856;2024-02-16T06:26:16;96009.81;;;18.82
50206;BMP280;36098;48.390;10.856;2024-02-16T06:28:41;96011.63;;;18.81
50206;BMP280;36098;48.390;10.856;2024-02-16T06:31:06;96018.19;;;18.84
50206;BMP280;36098;48.390;10.856;2024-02-16T06:33:31;96022.66;;;18.83
50206;BMP280;36098;48.390;10.856;2024-02-16T06:35:57;96022.66;;;18.83
50206;BMP280;36098;48.390;10.856;2024-02-16T06:38:22;96034.47;;;18.86
50206;BMP280;36098;48.390;10.856;2024-02-16T06:40:47;96042.88;;;18.88
50206;BMP280;36098;48.390;10.856;2024-02-16T06:43:12;96041.28;;;18.87
50206;BMP280;36098;48.390;10.856;2024-02-16T06:45:38;96040.47;;;18.86
50206;BMP280;36098;48.390;10.856;2024-02-16T06:48:03;96042.88;;;18.88
50206;BMP280;36098;48.390;10.856;2024-02-16T06:50:28;96039.44;;;18.87
50206;BMP280;36098;48.390;10.856;2024-02-16T06:52:54;96042.06;;;18.87
50206;BMP280;36098;48.390;10.856;2024-02-16T06:55:20;96046.50;;;18.87
50206;BMP280;36098;48.390;10.856;2024-02-16T06:57:45;96048.31;;;18.86
50206;BMP280;36098;48.390;10.856;2024-02-16T07:00:11;96048.09;;;18.88
50206;BMP280;36098;48.390;10.856;2024-02-16T07:02:38;96051.50;;;18.88
50206;BMP280;36098;48.390;10.856;2024-02-16T07:05:04;96054.59;;;18.85
50206;BMP280;36098;48.390;10.856;2024-02-16T07:07:29;96060.63;;;18.86
50206;BMP280;36098;48.390;10.856;2024-02-16T07:09:54;96061.63;;;18.85
50206;BMP280;36098;48.390;10.856;2024-02-16T07:12:20;96057.44;;;18.84
50206;BMP280;36098;48.390;10.856;2024-02-16T07:14:46;96066.09;;;18.84
50206;BMP280;36098;48.390;10.856;2024-02-16T07:17:15;96065.28;;;18.84
50206;BMP280;36098;48.390;10.856;2024-02-16T07:19:40;96066.09;;;18.84
50206;BMP280;36098;48.390;10.856;2024-02-16T07:22:05;96064.25;;;18.85
50206;BMP280;36098;48.390;10.856;2024-02-16T07:24:38;96066.09;;;18.84
50206;BMP280;36098;48.390;10.856;2024-02-16T07:27:03;96063.72;;;18.83
50206;BMP280;36098;48.390;10.856;2024-02-16T07:29:29;96061.09;;;18.83
50206;BMP280;36098;48.390;10.856;2024-02-16T07:31:54;96057.94;;;18.81
50206;BMP280;36098;48.390;10.856;2024-02-16T07:34:21;96058.97;;;18.80
50206;BMP280;36098;48.390;10.856;2024-02-16T07:36:46;96063.97;;;18.81
50206;BMP280;36098;48.390;10.856;2024-02-16T07:39:11;96067.13;;;18.83
50206;BMP280;36098;48.390;10.856;2024-02-16T07:41:37;96066.03;;;18.79
50206;BMP280;36098;48.390;10.856;2024-02-16T07:44:03;96071.00;;;18.81
50206;BMP280;36098;48.390;10.856;2024-02-16T07:46:28;96064.47;;;18.78
50206;BMP280;36098;48.390;10.856;2024-02-16T07:48:53;96066.81;;;18.80
50206;BMP280;36098;48.390;10.856;2024-02-16T07:51:18;96073.09;;;18.79
50206;BMP280;36098;48.390;10.856;2024-02-16T07:53:44;96074.66;;;18.80
50206;BMP280;36098;48.390;10.856;2024-02-16T07:56:11;96073.63;;;18.81
50206;BMP280;36098;48.390;10.856;2024-02-16T07:58:37;96066.81;;;18.80
50206;BMP280;36098;48.390;10.856;2024-02-16T08:01:04;96072.84;;;18.80
50206;BMP280;36098;48.390;10.856;2024-02-16T08:03:29;96068.66;;;18.79
50206;BMP280;36098;48.390;10.856;2024-02-16T08:05:55;96069.91;;;18.77
50206;BMP280;36098;48.390;10.856;2024-02-16T08:08:24;96070.47;;;18.79
50206;BMP280;36098;48.390;10.856;2024-02-16T08:10:51;96071.28;;;18.79
50206;BMP280;36098;48.390;10.856;2024-02-16T08:13:16;96070.41;;;18.74
50206;BMP280;36098;48.390;10.856;2024-02-16T08:15:46;96073.75;;;18.69
50206;BMP280;36098;48.390;10.856;2024-02-16T08:18:11;96078.75;;;18.71
50206;BMP280;36098;48.390;10.856;2024-02-16T08:20:37;96074.00;;;18.68
50206;BMP280;36098;48.390;10.856;2024-02-16T08:23:02;96075.63;;;18.74
50206;BMP280;36098;48.390;10.856;2024-02-16T08:25:27;96075.38;;;18.75
50206;BMP280;36098;48.390;10.856;2024-02-16T08:27:55;96077.00;;;18.76
50206;BMP280;36098;48.390;10.856;2024-02-16T08:30:20;96080.38;;;18.77
50206;BMP280;36098;48.390;10.856;2024-02-16T08:32:46;96074.59;;;18.75
50206;BMP280;36098;48.390;10.856;2024-02-16T08:35:11;96079.34;;;18.78
50206;BMP280;36098;48.390;10.856;2024-02-16T08:37:41;96068.88;;;18.78
50206;BMP280;36098;48.390;10.856;2024-02-16T08:40:07;96082.78;;;18.78
50206;BMP280;36098;48.390;10.856;2024-02-16T08:42:34;96082.22;;;18.76
50206;BMP280;36098;48.390;10.856;2024-02-16T08:45:00;96082.22;;;18.76
50206;BMP280;36098;48.390;10.856;2024-02-16T08:47:29;96081.19;;;18.77
50206;BMP280;36098;48.390;10.856;2024-02-16T08:49:55;96086.16;;;18.79
50206;BMP280;36098;48.390;10.856;2024-02-16T08:52:20;96083.53;;;18.79
50206;BMP280;36098;48.390;10.856;2024-02-16T08:54:45;96085.13;;;18.80
50206;BMP280;36098;48.390;10.856;2024-02-16T08:57:10;96078.88;;;18.81
50206;BMP280;36098;48.390;10.856;2024-02-16T08:59:36;96079.13;;;18.79
50206;BMP280;36098;48.390;10.856;2024-02-16T09:02:01;96089.31;;;18.81
50206;BMP280;36098;48.390;10.856;2024-02-16T09:04:27;96079.34;;;18.78
50206;BMP280;36098;48.390;10.856;2024-02-16T09:06:52;96083.06;;;18.82
50206;BMP280;36098;48.390;10.856;2024-02-16T09:09:18;96076.25;;;18.81
50206;BMP280;36098;48.390;10.856;2024-02-16T09:11:49;96080.44;;;18.82
50206;BMP280;36098;48.390;10.856;2024-02-16T09:14:14;96079.19;;;18.84
50206;BMP280;36098;48.390;10.856;2024-02-16T09:16:39;96076.78;;;18.83
50206;BMP280;36098;48.390;10.856;2024-02-16T09:19:05;96082.03;;;18.83
50206;BMP280;36098;48.390;10.856;2024-02-16T09:21:30;96073.63;;;18.81
50206;BMP280;36098;48.390;10.856;2024-02-16T09:23:56;96079.41;;;18.83
50206;BMP280;36098;48.390;10.856;2024-02-16T09:26:26;96081.78;;;18.84
50206;BMP280;36098;48.390;10.856;2024-02-16T09:28:55;96077.59;;;18.83
50206;BMP280;36098;48.390;10.856;2024-02-16T09:31:20;96081.78;;;18.84
50206;BMP280;36098;48.390;10.856;2024-02-16T09:33:46;96086.22;;;18.84
50206;BMP280;36098;48.390;10.856;2024-02-16T09:36:11;96077.81;;;18.82
50206;BMP280;36098;48.390;10.856;2024-02-16T09:38:36;96077.81;;;18.82
50206;BMP280;36098;48.390;10.856;2024-02-16T09:41:02;96081.25;;;18.82
50206;BMP280;36098;48.390;10.856;2024-02-16T09:43:28;96075.22;;;18.82
50206;BMP280;36098;48.390;10.856;2024-02-16T09:45:55;96091.47;;;18.84
50206;BMP280;36098;48.390;10.856;2024-02-16T09:48:21;96083.88;;;18.82
50206;BMP280;36098;48.390;10.856;2024-02-16T09:50:49;96083.59;;;18.84
50206;BMP280;36098;48.390;10.856;2024-02-16T09:53:15;96085.19;;;18.85
50206;BMP280;36098;48.390;10.856;2024-02-16T09:55:42;96090.41;;;18.85
50206;BMP280;36098;48.390;10.856;2024-02-16T09:58:08;96086.81;;;18.86
50206;BMP280;36098;48.390;10.856;2024-02-16T10:00:33;96088.38;;;18.87
50206;BMP280;36098;48.390;10.856;2024-02-16T10:02:58;96081.56;;;18.86
50206;BMP280;36098;48.390;10.856;2024-02-16T10:05:24;96094.72;;;18.91
50206;BMP280;36098;48.390;10.856;2024-02-16T10:07:50;96095.81;;;18.95
50206;BMP280;36098;48.390;10.856;2024-02-16T10:10:25;96090.06;;;18.98
50206;BMP280;36098;48.390;10.856;2024-02-16T10:13:11;96096.91;;;18.99
50206;BMP280;36098;48.390;10.856;2024-02-16T10:15:37;96092.16;;;18.96
50206;BMP280;36098;48.390;10.856;2024-02-16T10:18:04;96096.34;;;18.97
50206;BMP280;36098;48.390;10.856;2024-02-16T10:20:30;96092.69;;;18.98
50206;BMP280;36098;48.390;10.856;2024-02-16T10:23:11;96093.25;;;19.00
50206;BMP280;36098;48.390;10.856;2024-02-16T10:25:40;96102.75;;;19.06
50206;BMP280;36098;48.390;10.856;2024-02-16T10:28:08;96096.00;;;19.10
50206;BMP280;36098;48.390;10.856;2024-02-16T10:30:37;96093.38;;;19.10
50206;BMP280;36098;48.390;10.856;2024-02-16T10:33:05;96088.69;;;19.12
50206;BMP280;36098;48.390;10.856;2024-02-16T10:35:34;96084.00;;;19.14
50206;BMP280;36098;48.390;10.856;2024-02-16T10:38:01;96091.41;;;19.17
50206;BMP280;36098;48.390;10.856;2024-02-16T10:40:32;96086.97;;;19.17
50206;BMP280;36098;48.390;10.856;2024-02-16T10:43:01;96084.34;;;19.17
50206;BMP280;36098;48.390;10.856;2024-02-16T10:45:29;96093.78;;;19.18
50206;BMP280;36098;48.390;10.856;2024-02-16T10:47:55;96088.28;;;19.20
50206;BMP280;36098;48.390;10.856;2024-02-16T10:50:20;96091.94;;;19.19
50206;BMP280;36098;48.390;10.856;2024-02-16T10:52:46;96085.94;;;19.18
50206;BMP280;36098;48.390;10.856;2024-02-16T10:55:13;96089.88;;;19.21
50206;BMP280;36098;48.390;10.856;2024-02-16T10:57:39;96087.78;;;19.23
50206;BMP280;36098;48.390;10.856;2024-02-16T11:00:09;96087.78;;;19.23
50206;BMP280;36098;48.390;10.856;2024-02-16T11:02:51;96078.13;;;19.23
50206;BMP280;36098;48.390;10.856;2024-02-16T11:05:18;96082.56;;;19.23
50206;BMP280;36098;48.390;10.856;2024-02-16T11:07:44;96083.69;;;19.27
50206;BMP280;36098;48.390;10.856;2024-02-16T11:10:12;96087.78;;;19.23
50206;BMP280;36098;48.390;10.856;2024-02-16T11:12:37;96084.63;;;19.21
50206;BMP280;36098;48.390;10.856;2024-02-16T11:15:07;96087.25;;;19.21
50206;BMP280;36098;48.390;10.856;2024-02-16T11:17:34;96089.63;;;19.22
50206;BMP280;36098;48.390;10.856;2024-02-16T11:20:00;96095.19;;;19.26
50206;BMP280;36098;48.390;10.856;2024-02-16T11:22:27;96087.31;;;19.26
50206;BMP280;36098;48.390;10.856;2024-02-16T11:24:54;96084.72;;;19.26
50206;BMP280;36098;48.390;10.856;2024-02-16T11:27:21;96091.25;;;19.28
50206;BMP280;36098;48.390;10.856;2024-02-16T11:29:47;96088.91;;;19.27
50206;BMP280;36098;48.390;10.856;2024-02-16T11:32:13;96101.50;;;19.30
50206;BMP280;36098;48.390;10.856;2024-02-16T11:34:39;96098.88;;;19.30
50206;BMP280;36098;48.390;10.856;2024-02-16T11:37:05;96095.47;;;19.29
50206;BMP280;36098;48.390;10.856;2024-02-16T11:40:34;96106.78;;;19.35
50206;BMP280;36098;48.390;10.856;2024-02-16T11:43:00;96110.44;;;19.34
50206;BMP280;36098;48.390;10.856;2024-02-16T11:45:26;96106.78;;;19.35
50206;BMP280;36098;48.390;10.856;2024-02-16T11:48:03;96098.44;;;19.38
50206;BMP280;36098;48.390;10.856;2024-02-16T11:50:28;96100.53;;;19.36
50206;BMP280;36098;48.390;10.856;2024-02-16T11:52:55;96092.66;;;19.36
50206;BMP280;36098;48.390;10.856;2024-02-16T11:55:20;96101.00;;;19.33
50206;BMP280;36098;48.390;10.856;2024-02-16T11:57:46;96097.13;;;19.35
50206;BMP280;36098;48.390;10.856;2024-02-16T12:00:15;96099.47;;;19.37
50206;BMP280;36098;48.390;10.856;2024-02-16T12:02:43;96091.63;;;19.37
50206;BMP280;36098;48.390;10.856;2024-02-16T12:05:13;96091.63;;;19.37
50206;BMP280;36098;48.390;10.856;2024-02-16T12:07:39;96087.97;;;19.38
50206;BMP280;36098;48.390;10.856;2024-02-16T12:10:06;96090.59;;;19.38
50206;BMP280;36098;48.390;10.856;2024-02-16T12:12:32;96088.53;;;19.40
50206;BMP280;36098;48.390;10.856;2024-02-16T12:15:01;96090.09;;;19.41
50206;BMP280;36098;48.390;10.856;2024-02-16T12:17:26;96091.94;;;19.40
50206;BMP280;36098;48.390;10.856;2024-02-16T12:19:51;96096.13;;;19.41
50206;BMP280;36098;48.390;10.856;2024-02-16T12:22:18;96089.06;;;19.42
50206;BMP280;36098;48.390;10.856;2024-02-16T12:24:47;96084.38;;;19.44
50206;BMP280;36098;48.390;10.856;2024-02-16T12:27:13;96089.59;;;19.44
50206;BMP280;36098;48.390;10.856;2024-02-16T12:29:39;96092.31;;;19.49
50206;BMP280;36098;48.390;10.856;2024-02-16T12:32:06;96089.91;;;19.47
50206;BMP280;36098;48.390;10.856;2024-02-16T12:34:32;96093.88;;;19.50
50206;BMP280;36098;48.390;10.856;2024-02-16T12:36:58;96083.41;;;19.50
50206;BMP280;36098;48.390;10.856;2024-02-16T12:39:24;96089.19;;;19.52
50206;BMP280;36098;48.390;10.856;2024-02-16T12:41:49;96092.56;;;19.52
50206;BMP280;36098;48.390;10.856;2024-02-16T12:44:15;96096.78;;;19.53
50206;BMP280;36098;48.390;10.856;2024-02-16T12:46:40;96101.25;;;19.52
50206;BMP280;36098;48.390;10.856;2024-02-16T12:49:06;96103.88;;;19.52
50206;BMP280;36098;48.390;10.856;2024-02-16T12:51:32;96100.69;;;19.51
50206;BMP280;36098;48.390;10.856;2024-02-16T12:53:57;96102.78;;;19.49
50206;BMP280;36098;48.390;10.856;2024-02-16T12:56:23;96107.53;;;19.52
50206;BMP280;36098;48.390;10.856;2024-02-16T12:58:51;96103.88;;;19.52
50206;BMP280;36098;48.390;10.856;2024-02-16T13:01:18;96103.31;;;19.51
50206;BMP280;36098;48.390;10.856;2024-02-16T13:03:44;96103.88;;;19.52
50206;BMP280;36098;48.390;10.856;2024-02-16T13:06:09;96105.13;;;19.50
50206;BMP280;36098;48.390;10.856;2024-02-16T13:08:36;96096.22;;;19.51
50206;BMP280;36098;48.390;10.856;2024-02-16T13:11:02;96101.47;;;19.51
50206;BMP280;36098;48.390;10.856;2024-02-16T13:13:28;96098.63;;;19.52
50206;BMP280;36098;48.390;10.856;2024-02-16T13:15:53;96101.25;;;19.52
50206;BMP280;36098;48.390;10.856;2024-02-16T13:18:19;96098.63;;;19.52
50206;BMP280;36098;48.390;10.856;2024-02-16T13:20:45;96099.66;;;19.52
50206;BMP280;36098;48.390;10.856;2024-02-16T13:23:12;96108.56;;;19.51
50206;BMP280;36098;48.390;10.856;2024-02-16T13:25:37;96100.44;;;19.52
50206;BMP280;36098;48.390;10.856;2024-02-16T13:28:03;96100.69;;;19.51
50206;BMP280;36098;48.390;10.856;2024-02-16T13:30:28;96097.03;;;19.52
50206;BMP280;36098;48.390;10.856;2024-02-16T13:32:54;96103.88;;;19.52
50206;BMP280;36098;48.390;10.856;2024-02-16T13:35:20;96097.03;;;19.52
50206;BMP280;36098;48.390;10.856;2024-02-16T13:37:45;96097.81;;;19.52
50206;BMP280;36098;48.390;10.856;2024-02-16T13:40:11;96103.06;;;19.52
50206;BMP280;36098;48.390;10.856;2024-02-16T13:42:38;96095.19;;;19.52
50206;BMP280;36098;48.390;10.856;2024-02-16T13:45:04;96104.91;;;19.52
50206;BMP280;36098;48.390;10.856;2024-02-16T13:47:30;96111.19;;;19.51
50206;BMP280;36098;48.390;10.856;2024-02-16T13:49:55;96107.53;;;19.52
50206;BMP280;36098;48.390;10.856;2024-02-16T13:52:22;96108.28;;;19.52